Time;durP1;ratioP1;P1;durP2;ratioP2;P2;SDS_P1;SDS_P2;PMS_P1;PMS_P2;Temp;Humidity;BMP_temperature;BMP_pressure;BME280_temperature;BME280_humidity;BME280_pressure;Samples;Min_cycle;Max_cycle;Signal;HPM_P1;HPM_P2
2021/09/16 00:01:08;;;;;;;19.10;14.90;;;;;;;18.02;72.91;98361.48;232524;1205;22551;-71
2021/09/16 00:06:11;;;;;;;20.30;15.10;;;;;;;17.97;73.16;98359.89;232538;1203;24068;-72
2021/09/16 00:11:15;;;;;;;18.90;16.00;;;;;;;18.00;73.36;98359.50;232793;1205;24073;-71
2021/09/16 00:16:21;;;;;;;18.40;14.60;;;;;;;18.00;73.47;98359.40;232421;1209;22461;-71
2021/09/16 00:21:26;;;;;;;18.00;14.50;;;;;;;18.01;73.65;98361.77;233033;1205;25276;-71
2021/09/16 00:26:31;;;;;;;22.20;16.20;;;;;;;18.04;73.54;98354.72;232952;1205;24025;-71
2021/09/16 00:31:34;;;;;;;20.70;16.40;;;;;;;17.99;73.38;98352.73;233052;1206;24109;-72
2021/09/16 00:36:41;;;;;;;20.60;15.50;;;;;;;17.89;73.39;98347.35;232719;1204;24073;-73
2021/09/16 00:41:44;;;;;;;27.80;15.10;;;;;;;17.84;73.47;98344.13;232521;1205;24610;-73
2021/09/16 00:46:46;;;;;;;19.60;16.30;;;;;;;17.85;73.74;98341.91;232747;1206;22526;-73
2021/09/16 00:51:50;;;;;;;24.40;17.70;;;;;;;17.89;73.99;98343.95;232530;1205;22516;-73
2021/09/16 00:56:54;;;;;;;22.00;15.90;;;;;;;17.96;74.10;98344.45;233117;1209;22451;-74
2021/09/16 01:02:03;;;;;;;20.10;15.10;;;;;;;18.01;74.13;98342.34;233102;1197;22569;-73
2021/09/16 01:07:08;;;;;;;18.50;15.70;;;;;;;18.06;74.12;98348.34;232544;1203;24165;-73
2021/09/16 01:12:11;;;;;;;19.10;15.90;;;;;;;18.00;74.12;98348.73;233118;1199;24069;-71
2021/09/16 01:17:15;;;;;;;20.30;15.00;;;;;;;17.98;74.23;98353.63;232927;1205;24074;-72
2021/09/16 01:22:32;;;;;;;21.70;15.10;;;;;;;18.00;74.29;98349.03;232481;1203;24083;-73
2021/09/16 01:27:45;;;;;;;19.50;16.60;;;;;;;18.07;74.55;98352.23;233286;1205;25215;-70
2021/09/16 01:32:50;;;;;;;22.10;16.20;;;;;;;18.13;74.65;98351.16;232499;1207;24235;-72
2021/09/16 01:37:53;;;;;;;19.80;14.60;;;;;;;18.10;74.40;98348.08;232554;1205;22594;-71
2021/09/16 01:42:56;;;;;;;22.40;15.30;;;;;;;18.07;74.63;98345.27;233072;1205;24039;-73
2021/09/16 01:48:00;;;;;;;19.20;16.80;;;;;;;18.10;74.99;98344.97;232865;1205;25225;-73
2021/09/16 01:53:02;;;;;;;19.70;16.40;;;;;;;18.15;75.18;98334.88;232775;1205;22523;-72
2021/09/16 01:58:05;;;;;;;24.50;16.50;;;;;;;18.14;74.99;98326.40;232755;1212;25391;-71
2021/09/16 02:03:09;;;;;;;20.00;15.80;;;;;;;18.11;75.10;98325.56;232548;1199;24105;-72
2021/09/16 02:08:15;;;;;;;19.90;16.10;;;;;;;18.15;75.35;98325.11;232534;1200;25197;-72
2021/09/16 02:13:19;;;;;;;21.70;17.00;;;;;;;18.21;75.47;98326.41;232531;1208;24095;-72
2021/09/16 02:18:22;;;;;;;21.80;17.70;;;;;;;18.22;75.38;98322.73;233061;1205;22473;-72
2021/09/16 02:23:25;;;;;;;20.40;16.40;;;;;;;18.22;75.42;98319.92;232482;1205;25322;-72
2021/09/16 02:28:27;;;;;;;20.40;15.30;;;;;;;18.22;75.31;98318.30;232450;1207;24111;-71
2021/09/16 02:33:32;;;;;;;21.60;16.40;;;;;;;18.23;75.49;98318.89;232863;1204;24516;-72
2021/09/16 02:38:35;;;;;;;22.00;17.00;;;;;;;18.27;75.61;98316.58;233018;1203;22466;-73
2021/09/16 02:43:37;;;;;;;22.10;16.40;;;;;;;18.30;75.57;98314.24;232505;1207;24531;-72
2021/09/16 02:48:40;;;;;;;22.30;18.20;;;;;;;18.29;75.47;98313.12;232508;1207;24064;-73
2021/09/16 02:53:50;;;;;;;21.70;17.00;;;;;;;18.29;75.56;98308.40;232481;1203;22473;-73
2021/09/16 02:58:52;;;;;;;22.40;17.90;;;;;;;18.27;75.60;98310.52;232498;1207;24192;-71
2021/09/16 03:03:55;;;;;;;20.90;16.90;;;;;;;18.24;75.67;98303.56;232564;1207;22460;-73
2021/09/16 03:08:57;;;;;;;22.40;17.40;;;;;;;18.24;75.79;98309.99;232879;1204;24034;-72
2021/09/16 03:14:04;;;;;;;23.50;18.70;;;;;;;18.27;76.01;98309.30;232439;1198;22562;-71
2021/09/16 03:19:11;;;;;;;23.00;18.50;;;;;;;18.29;76.22;98304.46;232982;1204;24099;-72
2021/09/16 03:24:13;;;;;;;21.80;17.90;;;;;;;18.32;76.20;98300.79;232832;1204;22469;-71
2021/09/16 03:29:16;;;;;;;25.20;16.80;;;;;;;18.34;76.30;98304.66;232709;1204;24064;-72
2021/09/16 03:34:55;;;;;;;22.40;18.10;;;;;;;18.42;76.39;98311.04;232716;1203;545022;-72
2021/09/16 03:39:57;;;;;;;22.20;18.50;;;;;;;18.43;76.35;98319.90;234324;1197;24055;-72
2021/09/16 03:44:59;;;;;;;22.70;17.40;;;;;;;18.39;76.16;98316.23;234411;1202;24025;-72
2021/09/16 03:50:02;;;;;;;23.10;16.70;;;;;;;18.37;76.18;98313.54;234557;1197;24222;-73
2021/09/16 03:55:05;;;;;;;25.10;18.70;;;;;;;18.36;76.28;98309.42;233957;1198;24123;-71
2021/09/16 04:00:14;;;;;;;22.30;18.10;;;;;;;18.35;76.37;98313.48;235019;1202;25103;-72
2021/09/16 04:05:17;;;;;;;22.50;16.90;;;;;;;18.32;76.29;98310.09;234782;1195;24133;-72
2021/09/16 04:10:20;;;;;;;20.20;16.10;;;;;;;18.29;76.24;98309.72;234783;1202;22563;-70
2021/09/16 04:15:25;;;;;;;19.40;17.30;;;;;;;18.27;76.41;98307.96;234840;1202;24195;-72
2021/09/16 04:20:29;;;;;;;23.10;18.20;;;;;;;18.28;76.52;98310.62;234772;1201;26331;-70
2021/09/16 04:25:32;;;;;;;19.70;15.70;;;;;;;18.24;76.44;98317.58;235041;1202;22446;-72
2021/09/16 04:30:35;;;;;;;21.30;17.30;;;;;;;18.14;76.24;98326.70;234479;1202;25038;-71
2021/09/16 04:35:37;;;;;;;20.00;16.10;;;;;;;18.09;76.54;98321.39;234048;1180;22451;-73
2021/09/16 04:40:46;;;;;;;26.50;18.90;;;;;;;18.14;76.93;98314.86;234249;1203;24097;-73
2021/09/16 04:45:49;;;;;;;24.10;17.80;;;;;;;18.24;77.25;98319.52;234082;1203;24062;-72
2021/09/16 04:50:51;;;;;;;22.20;17.30;;;;;;;18.29;77.06;98322.34;234097;1197;22503;-70
2021/09/16 04:55:54;;;;;;;20.20;15.90;;;;;;;18.35;76.95;98331.62;234100;1196;23025;-71
2021/09/16 05:00:56;;;;;;;25.10;18.30;;;;;;;18.32;76.86;98336.27;234172;1203;24217;-72
2021/09/16 05:05:59;;;;;;;20.90;16.00;;;;;;;18.27;77.03;98344.67;234184;1196;24101;-70
2021/09/16 05:11:02;;;;;;;22.20;16.80;;;;;;;18.27;77.25;98350.20;234190;1203;24081;-73
2021/09/16 05:16:05;;;;;;;21.00;17.50;;;;;;;18.32;77.25;98352.55;234137;1203;22469;-72
2021/09/16 05:21:09;;;;;;;22.50;17.70;;;;;;;18.31;77.26;98349.98;234094;1196;24104;-74
2021/09/16 05:26:12;;;;;;;23.50;17.40;;;;;;;18.33;77.57;98343.12;234204;1203;22437;-73
2021/09/16 05:31:14;;;;;;;21.30;17.50;;;;;;;18.48;77.83;98337.82;234246;1197;24088;-70
2021/09/16 05:36:18;;;;;;;21.40;17.60;;;;;;;18.67;77.88;98334.16;234589;1202;24050;-73
2021/09/16 05:41:21;;;;;;;21.40;17.20;;;;;;;18.84;77.59;98331.90;234753;1201;22562;-73
2021/09/16 05:46:24;;;;;;;24.20;16.80;;;;;;;18.98;77.41;98332.70;235097;1201;24978;-72
2021/09/16 05:51:26;;;;;;;20.20;16.90;;;;;;;19.21;77.56;98327.97;234864;1196;24047;-72
2021/09/16 05:56:29;;;;;;;22.00;17.00;;;;;;;19.47;77.27;98331.96;235153;1196;24147;-72
2021/09/16 06:01:32;;;;;;;20.30;18.00;;;;;;;19.70;76.95;98330.55;234928;1195;22428;-74
2021/09/16 06:06:35;;;;;;;19.80;15.60;;;;;;;19.90;76.47;98335.21;235385;1193;24032;-74
2021/09/16 06:11:53;;;;;;;22.10;16.40;;;;;;;19.98;75.47;98336.59;235776;1187;25295;-71
2021/09/16 06:17:04;;;;;;;19.60;15.60;;;;;;;19.97;75.22;98344.97;235957;1193;25310;-70
2021/09/16 06:22:07;;;;;;;17.80;15.40;;;;;;;20.00;74.97;98353.48;235628;1193;24169;-72
2021/09/16 06:27:10;;;;;;;19.10;16.30;;;;;;;20.13;74.76;98360.70;235745;1201;22558;-71
2021/09/16 06:32:12;;;;;;;24.60;17.40;;;;;;;20.30;74.73;98361.60;235130;1196;24786;-73
2021/09/16 06:37:15;;;;;;;20.90;18.00;;;;;;;20.54;74.46;98374.89;235240;1193;22572;-73
2021/09/16 06:42:18;;;;;;;25.90;17.80;;;;;;;20.75;74.15;98382.14;235688;1195;24047;-72
2021/09/16 06:47:20;;;;;;;19.80;16.00;;;;;;;21.00;74.15;98380.73;235382;1193;24017;-71
2021/09/16 06:52:23;;;;;;;17.80;15.10;;;;;;;21.24;73.48;98381.13;235238;1193;22431;-72
2021/09/16 06:57:26;;;;;;;17.80;14.70;;;;;;;21.43;73.01;98381.84;235258;1193;22452;-72
2021/09/16 07:02:30;;;;;;;19.70;15.60;;;;;;;21.59;72.51;98389.54;235132;1195;24210;-72
2021/09/16 07:07:33;;;;;;;17.50;13.70;;;;;;;21.67;72.05;98392.20;235338;1193;22776;-71
2021/09/16 07:12:36;;;;;;;16.10;14.10;;;;;;;21.75;71.81;98399.45;235290;1194;24076;-70
2021/09/16 07:17:39;;;;;;;17.60;14.70;;;;;;;21.84;71.59;98396.59;235281;1193;22465;-71
2021/09/16 07:22:42;;;;;;;18.30;16.30;;;;;;;21.83;71.01;98393.16;235019;1187;25215;-71
2021/09/16 07:27:47;;;;;;;17.10;14.90;;;;;;;21.81;70.85;98393.52;235306;1201;22580;-70
2021/09/16 07:32:56;;;;;;;16.00;14.30;;;;;;;21.74;70.73;98398.35;235113;1193;24190;-73
2021/09/16 07:38:08;;;;;;;16.40;13.50;;;;;;;21.64;70.85;98397.23;235288;1193;24053;-71
2021/09/16 07:43:10;;;;;;;17.10;13.60;;;;;;;21.56;70.95;98401.02;235245;1193;24469;-72
2021/09/16 07:48:13;;;;;;;15.50;13.80;;;;;;;21.51;71.34;98403.60;235330;1186;24044;-71
2021/09/16 07:53:17;;;;;;;18.90;14.70;;;;;;;21.50;71.76;98409.09;235502;1201;25169;-71
2021/09/16 07:58:20;;;;;;;15.80;13.70;;;;;;;21.51;72.24;98410.83;237297;1195;25129;-72
2021/09/16 08:03:23;;;;;;;17.00;12.80;;;;;;;21.49;72.35;98412.42;235374;1193;22438;-72
2021/09/16 08:08:26;;;;;;;17.10;13.70;;;;;;;21.47;72.47;98410.84;235245;1196;22558;-72
2021/09/16 08:13:29;;;;;;;15.50;13.90;;;;;;;21.49;72.85;98411.89;234967;1196;24923;-72
2021/09/16 08:18:33;;;;;;;14.40;12.20;;;;;;;21.45;72.72;98415.41;235006;1187;25151;-72
2021/09/16 08:23:36;;;;;;;14.40;12.00;;;;;;;21.42;72.72;98416.62;235263;1193;24019;-72
2021/09/16 08:28:38;;;;;;;13.10;11.70;;;;;;;21.43;73.07;98422.77;235599;1195;25070;-70
2021/09/16 08:33:41;;;;;;;14.30;12.70;;;;;;;21.54;73.19;98429.23;234829;1193;22851;-70
2021/09/16 08:38:44;;;;;;;12.70;11.30;;;;;;;21.67;73.50;98433.15;235193;1196;22433;-72
2021/09/16 08:43:50;;;;;;;14.10;12.70;;;;;;;21.81;73.19;98435.27;235024;1193;24053;-71
2021/09/16 08:48:53;;;;;;;13.50;12.10;;;;;;;21.86;73.05;98436.66;235245;1193;25374;-72
2021/09/16 08:53:56;;;;;;;13.30;11.70;;;;;;;21.83;72.74;98436.45;235659;1196;22427;-71
2021/09/16 08:59:03;;;;;;;15.10;10.80;;;;;;;21.84;72.96;98432.04;235449;1195;22448;-71
2021/09/16 09:04:08;;;;;;;13.10;11.70;;;;;;;21.97;73.03;98433.11;235395;1193;24050;-72
2021/09/16 09:09:20;;;;;;;12.40;11.10;;;;;;;22.21;73.09;98431.86;237727;1193;22542;-71
2021/09/16 09:14:39;;;;;;;14.40;12.00;;;;;;;22.36;72.35;98433.69;235329;1193;22578;-71
2021/09/16 09:19:45;;;;;;;12.00;10.90;;;;;;;22.47;72.08;98432.00;235487;1193;22447;-72
2021/09/16 09:24:48;;;;;;;12.50;11.20;;;;;;;22.68;71.56;98435.45;235096;1193;23977;-72
2021/09/16 09:30:10;;;;;;;10.80;9.70;;;;;;;22.92;71.23;98432.27;235434;1193;25939;-72
2021/09/16 09:35:36;;;;;;;14.00;12.60;;;;;;;23.14;70.22;98429.39;237696;1201;22559;-71
2021/09/16 09:40:42;;;;;;;11.10;10.00;;;;;;;23.28;69.74;98426.74;235367;1194;24105;-72
2021/09/16 09:45:57;;;;;;;14.60;13.30;;;;;;;23.44;69.14;98425.20;236932;1201;22459;-71
2021/09/16 09:51:00;;;;;;;13.40;12.00;;;;;;;23.61;68.81;98421.27;235158;1194;25191;-73
2021/09/16 09:56:11;;;;;;;10.20;9.20;;;;;;;23.79;68.43;98421.52;235002;1195;22431;-72
2021/09/16 10:01:34;;;;;;;11.20;9.50;;;;;;;23.98;68.04;98422.92;235119;1195;25204;-72
2021/09/16 10:06:38;;;;;;;11.70;9.90;;;;;;;24.30;67.21;98417.76;236738;1201;22834;-72
2021/09/16 10:11:46;;;;;;;12.40;11.10;;;;;;;24.41;65.84;98414.08;235064;1188;22435;-72
2021/09/16 10:16:50;;;;;;;11.50;10.30;;;;;;;24.40;65.20;98420.26;235276;1201;22473;-71
2021/09/16 10:21:53;;;;;;;12.10;10.90;;;;;;;24.44;65.16;98417.60;235735;1195;22440;-73
2021/09/16 10:27:09;;;;;;;11.70;10.40;;;;;;;24.39;64.54;98415.95;235477;1193;22563;-73
2021/09/16 10:32:27;;;;;;;12.40;11.20;;;;;;;24.23;64.58;98414.14;235430;1201;22467;-73
2021/09/16 10:37:37;;;;;;;14.00;11.50;;;;;;;24.14;64.28;98406.70;234932;1196;24092;-73
2021/09/16 10:42:53;;;;;;;12.90;11.80;;;;;;;23.86;64.40;98404.43;235404;1194;22958;-72
2021/09/16 10:48:13;;;;;;;12.70;11.00;;;;;;;23.71;64.83;98405.08;237038;1200;22444;-73
2021/09/16 10:53:41;;;;;;;12.80;11.40;;;;;;;23.81;65.20;98402.93;235738;1193;24107;-75
2021/09/16 10:58:52;;;;;;;13.10;11.90;;;;;;;24.10;65.38;98397.16;235616;1201;22491;-76
2021/09/16 11:03:58;;;;;;;12.30;11.10;;;;;;;24.36;65.27;98391.70;235655;1195;23070;-72
2021/09/16 11:09:04;;;;;;;12.90;11.70;;;;;;;24.47;64.23;98396.56;236345;1201;22821;-72
2021/09/16 11:14:09;;;;;;;13.90;12.50;;;;;;;24.48;64.13;98388.27;235671;1196;22438;-73
2021/09/16 11:19:16;;;;;;;14.20;12.80;;;;;;;24.58;63.96;98385.69;235530;1201;25143;-73
2021/09/16 11:24:18;;;;;;;13.70;12.40;;;;;;;24.68;63.93;98385.39;235307;1197;25288;-73
2021/09/16 11:29:21;;;;;;;14.60;13.10;;;;;;;24.76;63.72;98387.11;235187;1202;22455;-73
2021/09/16 11:34:24;;;;;;;15.70;14.20;;;;;;;24.75;63.96;98384.14;236309;1189;24170;-72
2021/09/16 11:39:27;;;;;;;14.30;12.90;;;;;;;24.73;63.86;98388.44;236444;1196;25148;-73
2021/09/16 11:44:30;;;;;;;14.70;13.30;;;;;;;24.82;64.30;98389.91;235514;1201;22436;-72
2021/09/16 11:49:32;;;;;;;14.60;13.10;;;;;;;24.87;64.03;98383.89;235377;1196;24587;-74
2021/09/16 11:54:35;;;;;;;15.00;13.60;;;;;;;24.81;63.78;98383.51;235283;1193;24054;-74
2021/09/16 11:59:38;;;;;;;16.90;15.10;;;;;;;24.71;64.01;98374.98;235244;1195;24145;-73
2021/09/16 12:04:41;;;;;;;17.10;15.40;;;;;;;24.45;63.46;98368.16;235339;1196;22406;-72
2021/09/16 12:09:44;;;;;;;16.60;14.90;;;;;;;24.14;63.82;98367.14;235168;1194;22562;-73
2021/09/16 12:14:48;;;;;;;15.80;14.20;;;;;;;24.05;64.43;98360.79;234756;1201;25018;-72
2021/09/16 12:19:53;;;;;;;15.60;14.10;;;;;;;24.10;64.48;98351.98;235018;1201;22448;-74
2021/09/16 12:25:00;;;;;;;14.40;12.90;;;;;;;24.03;64.50;98347.73;235010;1196;24156;-72
2021/09/16 12:30:19;;;;;;;14.20;12.90;;;;;;;24.06;64.61;98349.94;235061;1201;24702;-71
2021/09/16 12:35:34;;;;;;;13.10;11.70;;;;;;;24.13;64.37;98350.33;234998;1201;24076;-74
2021/09/16 12:40:47;;;;;;;15.00;13.10;;;;;;;24.15;64.49;98345.48;235325;1180;24081;-73
2021/09/16 12:45:53;;;;;;;17.30;15.00;;;;;;;24.18;64.18;98342.04;235058;1201;22443;-73
2021/09/16 12:51:07;;;;;;;14.00;12.70;;;;;;;24.08;63.86;98342.20;234962;1199;22451;-75
2021/09/16 12:56:11;;;;;;;14.10;12.60;;;;;;;23.94;64.41;98337.33;235591;1201;26132;-71
2021/09/16 13:01:13;;;;;;;17.10;15.30;;;;;;;23.74;64.44;98329.23;235022;1195;22468;-70
2021/09/16 13:06:17;;;;;;;13.10;11.90;;;;;;;23.55;65.28;98325.19;235291;1189;22730;-74
2021/09/16 13:11:24;;;;;;;14.00;12.60;;;;;;;23.43;65.55;98321.41;234951;1201;26091;-73
2021/09/16 13:16:28;;;;;;;13.10;11.90;;;;;;;23.29;65.99;98319.88;235229;1195;22434;-74
2021/09/16 13:21:34;;;;;;;12.10;10.80;;;;;;;23.22;66.60;98318.75;235212;1193;24092;-73
2021/09/16 13:26:38;;;;;;;12.80;11.50;;;;;;;23.18;66.90;98325.85;236372;1197;24073;-73
2021/09/16 13:31:41;;;;;;;12.50;11.20;;;;;;;23.20;67.06;98320.16;236229;1174;24086;-74
2021/09/16 13:36:44;;;;;;;14.40;12.90;;;;;;;23.15;66.73;98320.75;236124;1189;22557;-73
2021/09/16 13:41:47;;;;;;;15.00;13.50;;;;;;;23.11;67.06;98321.43;236205;1190;25227;-72
2021/09/16 13:46:50;;;;;;;11.50;10.30;;;;;;;23.25;66.88;98314.09;236261;1197;22508;-76
2021/09/16 13:51:54;;;;;;;11.70;10.50;;;;;;;23.30;66.52;98320.98;236275;1190;22428;-72
2021/09/16 13:56:56;;;;;;;12.70;10.00;;;;;;;23.31;66.64;98319.73;236256;1192;24022;-74
2021/09/16 14:02:00;;;;;;;11.00;9.30;;;;;;;23.30;66.63;98317.62;236576;1193;24048;-73
2021/09/16 14:07:06;;;;;;;11.90;10.70;;;;;;;23.20;66.58;98315.08;239066;1197;22449;-74
2021/09/16 14:12:13;;;;;;;11.90;10.70;;;;;;;23.16;67.13;98316.87;238606;1197;24044;-74
2021/09/16 14:17:17;;;;;;;11.60;10.30;;;;;;;23.16;67.13;98316.16;238414;1191;24033;-74
2021/09/16 14:22:22;;;;;;;10.40;9.40;;;;;;;23.24;67.61;98309.02;236156;1197;24148;-76
2021/09/16 14:27:24;;;;;;;8.80;8.00;;;;;;;23.38;67.38;98305.85;235974;1177;22505;-74
2021/09/16 14:32:27;;;;;;;8.30;7.50;;;;;;;23.46;67.12;98300.80;238456;1197;22451;-73
2021/09/16 14:37:30;;;;;;;7.30;6.60;;;;;;;23.53;67.04;98301.83;236425;1177;24121;-74
2021/09/16 14:42:36;;;;;;;7.80;6.10;;;;;;;23.65;66.72;98296.08;236189;1192;24051;-75
2021/09/16 14:47:41;;;;;;;7.50;6.50;;;;;;;23.58;65.69;98303.25;235799;1190;22432;-75
2021/09/16 14:52:45;;;;;;;6.30;5.70;;;;;;;23.44;65.77;98309.94;235998;1197;25851;-74
2021/09/16 14:57:50;;;;;;;6.60;5.30;;;;;;;23.35;65.59;98302.96;235910;1197;24045;-74
2021/09/16 15:02:53;;;;;;;6.00;5.40;;;;;;;23.32;65.64;98303.18;236039;1197;24085;-74
2021/09/16 15:07:56;;;;;;;6.00;5.20;;;;;;;23.20;65.57;98304.85;236154;1197;24029;-72
2021/09/16 15:12:58;;;;;;;6.60;5.50;;;;;;;23.07;65.81;98302.05;235702;1194;22411;-72
2021/09/16 15:18:06;;;;;;;6.30;5.50;;;;;;;22.98;66.11;98292.40;235721;1198;24019;-75
2021/09/16 15:23:11;;;;;;;6.50;5.90;;;;;;;22.91;66.46;98287.92;235743;1198;24317;-72
2021/09/16 15:28:15;;;;;;;6.20;5.30;;;;;;;22.82;66.63;98283.73;235731;1198;22867;-74
2021/09/16 15:33:17;;;;;;;7.10;6.00;;;;;;;22.77;67.03;98288.23;235655;1196;22460;-74
2021/09/16 15:38:20;;;;;;;5.60;5.10;;;;;;;22.74;67.18;98287.84;235899;1198;24142;-75
2021/09/16 15:43:23;;;;;;;7.90;6.80;;;;;;;22.72;67.36;98296.79;235904;1198;24228;-74
2021/09/16 15:48:28;;;;;;;10.20;6.00;;;;;;;22.68;67.39;98307.23;235808;1198;24095;-74
2021/09/16 15:53:31;;;;;;;9.00;6.10;;;;;;;22.60;67.55;98314.04;235927;1198;22443;-74
2021/09/16 15:58:34;;;;;;;6.90;5.10;;;;;;;22.34;67.44;98329.20;236101;1198;24045;-73
2021/09/16 16:03:36;;;;;;;5.50;4.80;;;;;;;21.95;67.46;98340.84;235933;1194;25205;-75
2021/09/16 16:08:41;;;;;;;6.70;5.20;;;;;;;21.47;68.03;98346.24;235832;1195;22487;-75
2021/09/16 16:13:44;;;;;;;8.10;5.70;;;;;;;21.03;69.14;98346.23;235969;1198;24166;-74
2021/09/16 16:18:48;;;;;;;5.40;4.60;;;;;;;20.66;70.13;98349.97;235881;1198;24099;-76
2021/09/16 16:23:51;;;;;;;6.60;5.30;;;;;;;20.35;71.46;98350.58;235633;1198;22544;-72
2021/09/16 16:28:54;;;;;;;11.70;8.10;;;;;;;20.11;72.95;98356.92;235946;1198;24011;-74
2021/09/16 16:33:57;;;;;;;15.30;8.70;;;;;;;19.78;74.50;98353.77;235808;1191;24206;-75
2021/09/16 16:38:59;;;;;;;11.10;9.40;;;;;;;19.53;75.57;98352.58;235926;1196;22441;-75
2021/09/16 16:44:02;;;;;;;13.30;10.60;;;;;;;19.31;76.44;98354.23;236111;1198;22439;-75
2021/09/16 16:49:08;;;;;;;17.30;12.30;;;;;;;19.16;77.41;98360.98;236091;1198;24117;-75
2021/09/16 16:54:10;;;;;;;18.00;14.10;;;;;;;19.03;78.35;98359.86;236107;1192;23717;-72
2021/09/16 16:59:13;;;;;;;27.70;19.50;;;;;;;18.97;79.26;98357.33;236261;1190;24072;-75
2021/09/16 17:04:16;;;;;;;28.30;20.60;;;;;;;18.92;79.97;98361.27;236127;1198;22425;-74
2021/09/16 17:09:18;;;;;;;29.60;21.30;;;;;;;18.86;80.26;98362.64;236180;1197;25098;-71
2021/09/16 17:14:21;;;;;;;32.90;23.30;;;;;;;18.79;80.95;98366.98;236549;1198;24034;-74
2021/09/16 17:19:25;;;;;;;40.10;25.50;;;;;;;18.74;81.41;98366.41;236755;1190;24187;-74
2021/09/16 17:24:29;;;;;;;40.20;25.80;;;;;;;18.73;81.80;98363.34;236377;1197;24057;-74
2021/09/16 17:29:31;;;;;;;38.80;24.30;;;;;;;18.71;82.25;98362.60;236130;1196;24112;-73
2021/09/16 17:34:34;;;;;;;31.20;21.40;;;;;;;18.67;82.43;98358.33;236058;1190;24046;-74
2021/09/16 17:39:38;;;;;;;34.70;23.20;;;;;;;18.59;82.59;98353.52;236042;1197;24040;-72
2021/09/16 17:44:41;;;;;;;27.70;18.50;;;;;;;18.56;82.97;98349.73;235972;1193;24030;-72
2021/09/16 17:49:50;;;;;;;28.60;19.60;;;;;;;18.50;83.09;98346.78;236151;1198;24873;-72
2021/09/16 17:54:53;;;;;;;30.70;20.70;;;;;;;18.41;83.35;98348.44;235835;1198;25170;-73
2021/09/16 17:59:55;;;;;;;28.20;18.50;;;;;;;18.37;83.75;98351.19;236414;1184;24092;-73
2021/09/16 18:04:58;;;;;;;28.70;19.30;;;;;;;18.31;83.77;98355.31;236252;1184;25299;-73
2021/09/16 18:10:02;;;;;;;28.70;19.70;;;;;;;18.23;84.05;98357.29;236257;1197;22439;-72
2021/09/16 18:15:07;;;;;;;34.80;21.10;;;;;;;18.18;84.16;98350.35;235986;1197;25287;-70
2021/09/16 18:20:15;;;;;;;27.90;18.60;;;;;;;18.20;84.88;98349.94;235992;1198;24323;-71
2021/09/16 18:25:18;;;;;;;28.30;19.30;;;;;;;18.19;84.74;98354.15;236163;1194;22516;-72
2021/09/16 18:30:22;;;;;;;34.60;22.00;;;;;;;18.13;84.86;98352.61;235738;1198;25111;-72
2021/09/16 18:35:26;;;;;;;33.20;21.10;;;;;;;18.10;85.19;98352.02;236199;1193;25110;-72
2021/09/16 18:40:30;;;;;;;30.70;21.60;;;;;;;18.11;85.60;98346.61;236201;1193;25015;-72
2021/09/16 18:45:33;;;;;;;30.90;19.90;;;;;;;18.11;85.88;98348.55;236159;1198;24065;-73
2021/09/16 18:50:37;;;;;;;35.70;21.40;;;;;;;18.07;85.81;98340.23;236018;1190;24033;-72
2021/09/16 18:55:40;;;;;;;34.20;21.20;;;;;;;18.02;85.89;98332.00;236087;1197;24089;-72
2021/09/16 19:00:43;;;;;;;33.10;19.60;;;;;;;17.95;85.87;98332.80;236248;1190;24080;-69
2021/09/16 19:05:49;;;;;;;39.10;21.30;;;;;;;17.84;85.83;98342.33;235995;1190;25610;-72
2021/09/16 19:10:57;;;;;;;37.90;21.40;;;;;;;17.77;86.29;98350.81;236219;1190;24215;-73
2021/09/16 19:16:03;;;;;;;33.20;19.90;;;;;;;17.71;86.44;98357.79;236182;1198;23957;-72
2021/09/16 19:21:07;;;;;;;32.70;19.00;;;;;;;17.66;86.49;98369.70;235857;1198;22458;-70
2021/09/16 19:26:11;;;;;;;38.40;21.20;;;;;;;17.63;86.85;98362.37;235983;1198;22468;-73
2021/09/16 19:31:16;;;;;;;38.30;22.30;;;;;;;17.67;87.30;98362.46;236207;1198;25198;-73
2021/09/16 19:36:21;;;;;;;37.20;20.80;;;;;;;17.67;87.03;98367.27;235980;1198;24178;-73
2021/09/16 19:41:24;;;;;;;44.30;24.50;;;;;;;17.69;87.40;98366.01;236148;1198;22456;-74
2021/09/16 19:46:26;;;;;;;45.70;24.70;;;;;;;17.70;87.41;98361.30;236067;1193;22486;-72
2021/09/16 19:51:30;;;;;;;45.40;24.70;;;;;;;17.67;87.26;98365.71;236075;1193;22520;-70
2021/09/16 19:56:34;;;;;;;43.40;24.00;;;;;;;17.66;87.40;98357.94;235855;1194;22598;-72
2021/09/16 20:01:37;;;;;;;44.60;25.00;;;;;;;17.64;87.53;98358.21;235972;1197;22453;-72
2021/09/16 20:06:40;;;;;;;47.80;25.80;;;;;;;17.69;88.04;98364.13;235830;1190;22471;-73
2021/09/16 20:11:43;;;;;;;46.20;24.80;;;;;;;17.77;88.51;98355.00;235767;1198;22438;-72
2021/09/16 20:16:46;;;;;;;43.30;23.80;;;;;;;17.79;88.20;98364.27;235689;1197;25282;-72
2021/09/16 20:21:49;;;;;;;54.90;26.70;;;;;;;17.72;87.54;98361.30;236097;1198;22430;-73
2021/09/16 20:26:52;;;;;;;60.00;28.60;;;;;;;17.72;88.18;98356.73;235885;1198;24960;-70
2021/09/16 20:31:55;;;;;;;55.00;27.60;;;;;;;17.73;88.12;98357.23;235918;1193;24056;-72
2021/09/16 20:36:58;;;;;;;55.70;25.90;;;;;;;17.67;87.94;98353.59;235814;1198;22457;-72
2021/09/16 20:42:02;;;;;;;61.70;30.20;;;;;;;17.64;88.02;98348.98;235792;1198;24199;-70
2021/09/16 20:47:05;;;;;;;61.20;28.80;;;;;;;17.68;88.74;98344.62;236028;1198;22432;-72
2021/09/16 20:52:08;;;;;;;60.60;28.90;;;;;;;17.71;88.62;98340.31;235735;1190;25200;-72
2021/09/16 20:57:10;;;;;;;66.60;30.60;;;;;;;17.71;88.56;98341.98;235809;1193;25342;-70
2021/09/16 21:02:13;;;;;;;65.30;30.80;;;;;;;17.72;88.84;98338.54;235810;1182;26049;-73
2021/09/16 21:07:16;;;;;;;66.20;30.50;;;;;;;17.71;88.62;98332.38;235858;1197;22456;-72
2021/09/16 21:12:18;;;;;;;65.40;30.70;;;;;;;17.71;89.20;98340.52;235899;1183;25287;-72
2021/09/16 21:17:21;;;;;;;67.10;29.30;;;;;;;17.75;89.43;98338.84;235909;1198;22428;-70
2021/09/16 21:22:24;;;;;;;64.30;27.90;;;;;;;17.73;89.14;98334.79;235719;1198;24576;-70
2021/09/16 21:27:28;;;;;;;70.40;28.80;;;;;;;17.72;89.26;98338.30;236106;1192;24043;-72
2021/09/16 21:32:30;;;;;;;67.80;28.40;;;;;;;17.71;89.27;98336.97;235611;1192;25163;-72
2021/09/16 21:37:34;;;;;;;64.60;26.60;;;;;;;17.68;89.00;98343.85;235792;1192;24001;-72
2021/09/16 21:42:37;;;;;;;67.30;26.50;;;;;;;17.66;89.01;98344.33;235864;1197;25164;-71
2021/09/16 21:47:40;;;;;;;63.50;26.30;;;;;;;17.65;89.26;98343.91;235499;1198;22457;-72
2021/09/16 21:52:43;;;;;;;65.60;25.40;;;;;;;17.63;89.27;98344.11;235676;1198;24089;-72
2021/09/16 21:57:52;;;;;;;74.60;27.30;;;;;;;17.63;89.58;98332.80;235693;1193;24201;-72
2021/09/16 22:02:55;;;;;;;67.30;26.30;;;;;;;17.65;89.69;98332.16;235815;1190;24060;-72
2021/09/16 22:07:59;;;;;;;70.70;27.00;;;;;;;17.67;89.82;98321.52;235765;1190;24496;-71
2021/09/16 22:13:02;;;;;;;58.30;24.00;;;;;;;17.64;89.79;98312.95;235758;1190;24047;-73
2021/09/16 22:18:05;;;;;;;72.90;28.70;;;;;;;17.59;89.66;98307.16;235894;1197;22422;-72
2021/09/16 22:23:08;;;;;;;79.60;27.70;;;;;;;17.55;89.79;98310.77;235706;1197;22814;-73
2021/09/16 22:28:21;;;;;;;83.00;29.80;;;;;;;17.57;90.11;98316.00;235711;1198;24570;-72
2021/09/16 22:33:32;;;;;;;89.70;28.60;;;;;;;17.58;90.20;98319.77;235750;1192;24633;-72
2021/09/16 22:38:35;;;;;;;89.20;30.00;;;;;;;17.60;90.29;98316.95;235727;1184;22462;-71
2021/09/16 22:43:38;;;;;;;95.80;30.60;;;;;;;17.62;90.30;98310.73;235926;1197;24563;-70
2021/09/16 22:48:41;;;;;;;107.50;32.20;;;;;;;17.61;90.14;98311.55;235711;1198;25312;-70
2021/09/16 22:53:44;;;;;;;103.00;30.20;;;;;;;17.64;90.59;98308.84;235723;1192;22463;-70
2021/09/16 22:58:48;;;;;;;102.00;31.30;;;;;;;17.69;90.73;98305.95;236008;1198;24081;-72
2021/09/16 23:03:51;;;;;;;118.90;32.50;;;;;;;17.69;90.67;98303.31;235886;1190;24087;-72
2021/09/16 23:08:53;;;;;;;119.30;31.30;;;;;;;17.66;90.49;98298.22;235944;1197;22426;-70